createdAt,value
2022-07-28T00:01:51.318Z,23.59
2022-07-28T00:04:54.591Z,23.55
2022-07-28T00:07:59.091Z,23.56
2022-07-28T00:11:01.896Z,23.60
2022-07-28T00:14:04.248Z,23.61
2022-07-28T00:17:06.833Z,23.65
2022-07-28T00:20:09.830Z,23.61
2022-07-28T00:23:12.418Z,23.57
2022-07-28T00:26:14.615Z,23.51
2022-07-28T00:29:18.177Z,23.45
2022-07-28T00:32:20.674Z,23.43
2022-07-28T00:35:30.209Z,23.42
2022-07-28T00:38:34.719Z,23.42
2022-07-28T00:41:38.062Z,23.40
2022-07-28T00:44:42.049Z,23.38
2022-07-28T00:47:44.768Z,23.38
2022-07-28T00:50:47.027Z,23.40
2022-07-28T00:53:49.955Z,23.32
2022-07-28T00:56:52.181Z,23.25
2022-07-28T00:59:54.744Z,23.21
2022-07-28T01:02:57.880Z,23.13
2022-07-28T01:06:09.714Z,23.09
2022-07-28T01:09:30.850Z,23.03
2022-07-28T01:12:37.451Z,22.90
2022-07-28T01:15:51.939Z,22.78
2022-07-28T01:19:14.384Z,22.91
2022-07-28T01:22:22.531Z,22.77
2022-07-28T01:25:40.627Z,22.68
2022-07-28T01:29:05.730Z,22.57
2022-07-28T01:32:19.411Z,22.52
2022-07-28T01:35:27.126Z,22.47
2022-07-28T01:38:32.202Z,22.38
2022-07-28T01:41:36.374Z,22.34
2022-07-28T01:44:43.437Z,22.31
2022-07-28T01:47:47.687Z,22.31
2022-07-28T01:50:52.035Z,22.28
2022-07-28T01:53:57.170Z,22.21
2022-07-28T01:57:01.890Z,22.14
2022-07-28T02:00:09.845Z,22.20
2022-07-28T02:03:15.587Z,22.17
2022-07-28T02:06:20.291Z,22.18
2022-07-28T02:09:24.176Z,22.17
2022-07-28T02:12:28.352Z,22.15
2022-07-28T02:15:32.253Z,22.01
2022-07-28T02:18:37.952Z,21.94
2022-07-28T02:21:42.439Z,21.94
2022-07-28T02:24:46.611Z,21.91
2022-07-28T02:28:08.884Z,21.90
2022-07-28T02:31:24.972Z,21.83
2022-07-28T02:34:28.757Z,21.68
2022-07-28T02:37:36.224Z,21.62
2022-07-28T02:40:42.988Z,21.50
2022-07-28T02:43:51.296Z,21.54
2022-07-28T02:46:57.422Z,21.47
2022-07-28T02:50:02.879Z,21.42
2022-07-28T02:53:14.873Z,21.41
2022-07-28T02:56:19.381Z,21.30
2022-07-28T02:59:23.944Z,21.21
2022-07-28T03:02:30.718Z,21.31
2022-07-28T03:05:33.531Z,21.28
2022-07-28T03:08:36.701Z,21.39
2022-07-28T03:11:52.563Z,21.43
2022-07-28T03:14:55.263Z,21.43
2022-07-28T03:17:57.451Z,21.32
2022-07-28T03:21:01.111Z,21.07
2022-07-28T03:24:03.922Z,21.18
2022-07-28T03:27:16.050Z,21.12
2022-07-28T03:30:22.837Z,21.12
2022-07-28T03:33:26.397Z,21.34
2022-07-28T03:36:40.030Z,21.28
2022-07-28T03:39:51.832Z,21.23
2022-07-28T03:42:55.834Z,21.12
2022-07-28T03:45:58.565Z,21.06
2022-07-28T03:49:00.909Z,21.29
2022-07-28T03:52:03.778Z,21.50
2022-07-28T03:55:07.944Z,21.62
2022-07-28T03:58:10.852Z,21.75
2022-07-28T04:01:13.456Z,22.00
2022-07-28T04:04:17.402Z,22.09
2022-07-28T04:07:20.300Z,22.34
2022-07-28T04:10:25.239Z,22.55
2022-07-28T04:13:27.556Z,22.59
2022-07-28T04:16:30.901Z,22.60
2022-07-28T04:19:34.282Z,22.59
2022-07-28T04:22:37.646Z,22.60
2022-07-28T04:25:40.510Z,22.66
2022-07-28T04:28:49.197Z,22.68
2022-07-28T04:31:52.378Z,22.70
2022-07-28T04:34:56.477Z,22.79
2022-07-28T04:38:00.141Z,22.80
2022-07-28T04:41:02.983Z,22.73
2022-07-28T04:44:08.262Z,22.75
2022-07-28T04:47:13.428Z,22.93
2022-07-28T04:50:18.990Z,22.94
2022-07-28T04:53:22.934Z,23.03
2022-07-28T04:56:25.698Z,23.13
2022-07-28T04:59:29.738Z,23.17
2022-07-28T05:02:35.202Z,23.22
2022-07-28T05:05:39.299Z,23.46
2022-07-28T05:08:41.826Z,23.87
2022-07-28T05:11:45.557Z,24.13
2022-07-28T05:14:49.078Z,24.50
2022-07-28T05:17:51.887Z,24.94
2022-07-28T05:20:54.632Z,25.42
2022-07-28T05:23:57.752Z,25.70
2022-07-28T05:27:00.366Z,26.26
2022-07-28T05:30:03.237Z,26.97
2022-07-28T05:33:05.838Z,27.66
2022-07-28T05:36:11.298Z,27.77
2022-07-28T05:39:13.816Z,27.72
2022-07-28T05:42:17.644Z,27.56
2022-07-28T05:45:21.019Z,27.34
2022-07-28T05:48:24.472Z,27.29
2022-07-28T05:51:26.883Z,27.04
2022-07-28T05:54:30.061Z,27.06
2022-07-28T05:57:32.615Z,27.04
2022-07-28T06:00:35.657Z,26.93
2022-07-28T06:03:42.146Z,27.06
2022-07-28T06:06:45.035Z,27.26
2022-07-28T06:09:47.995Z,27.65
2022-07-28T06:12:52.897Z,28.09
2022-07-28T06:15:55.643Z,28.33
2022-07-28T06:18:57.898Z,28.58
2022-07-28T06:22:00.513Z,28.35
2022-07-28T06:25:02.697Z,28.64
2022-07-28T06:28:05.774Z,29.72
2022-07-28T06:31:08.032Z,30.58
2022-07-28T06:34:10.914Z,30.79
2022-07-28T06:37:13.178Z,31.45
2022-07-28T06:40:17.549Z,31.93
2022-07-28T06:43:19.786Z,34.27
2022-07-28T06:46:22.865Z,35.11
2022-07-28T06:49:25.269Z,34.66
2022-07-28T06:52:28.108Z,33.81
2022-07-28T06:55:35.445Z,35.26
2022-07-28T06:58:38.351Z,35.78
2022-07-28T07:01:42.635Z,37.58
2022-07-28T07:04:45.119Z,37.08
2022-07-28T07:07:47.292Z,38.12
2022-07-28T07:10:49.895Z,39.65
2022-07-28T07:13:52.751Z,40.58
2022-07-28T07:16:55.148Z,41.14
2022-07-28T07:19:57.382Z,39.67
2022-07-28T07:22:59.843Z,37.62
2022-07-28T07:26:03.323Z,35.73
2022-07-28T07:29:07.268Z,35.52
2022-07-28T07:32:10.898Z,35.21
2022-07-28T07:35:13.674Z,34.57
2022-07-28T07:38:15.854Z,33.39
2022-07-28T07:41:18.823Z,33.56
2022-07-28T07:44:21.008Z,33.95
2022-07-28T07:47:23.469Z,34.30
2022-07-28T07:50:25.592Z,33.77
2022-07-28T07:53:28.050Z,33.07
2022-07-28T07:56:30.298Z,32.65
2022-07-28T07:59:32.751Z,32.48
2022-07-28T08:02:38.620Z,32.50
2022-07-28T08:05:41.270Z,32.50
2022-07-28T08:08:48.005Z,32.13
2022-07-28T08:11:51.158Z,32.06
2022-07-28T08:14:54.590Z,31.92
2022-07-28T08:17:57.048Z,32.67
2022-07-28T08:20:59.161Z,32.32
2022-07-28T08:24:01.665Z,32.49
2022-07-28T08:27:04.471Z,32.42
2022-07-28T08:30:07.632Z,32.87
2022-07-28T08:33:09.760Z,32.52
2022-07-28T08:36:12.194Z,32.50
2022-07-28T08:39:14.351Z,32.59
2022-07-28T08:42:23.815Z,32.17
2022-07-28T08:45:26.732Z,31.83
2022-07-28T08:48:33.229Z,31.74
2022-07-28T08:51:37.328Z,31.29
2022-07-28T08:54:46.596Z,31.49
2022-07-28T08:57:49.628Z,31.45
2022-07-28T09:00:52.301Z,31.19
2022-07-28T09:03:55.243Z,31.06
2022-07-28T09:06:57.965Z,31.30
2022-07-28T09:10:03.169Z,31.51
2022-07-28T09:13:05.752Z,31.55
2022-07-28T09:16:08.081Z,31.36
2022-07-28T09:19:10.579Z,31.51
2022-07-28T09:22:13.311Z,31.67
2022-07-28T09:25:19.330Z,32.04
2022-07-28T09:28:21.509Z,31.84
2022-07-28T09:31:26.536Z,31.54
2022-07-28T09:34:29.712Z,31.63
2022-07-28T09:37:32.567Z,31.85
2022-07-28T09:40:34.914Z,32.10
2022-07-28T09:43:39.643Z,32.16
2022-07-28T09:46:41.966Z,32.11
2022-07-28T09:49:44.838Z,31.89
2022-07-28T09:52:47.461Z,31.54
2022-07-28T09:56:01.262Z,31.64
2022-07-28T09:59:04.889Z,31.61
2022-07-28T10:02:09.485Z,31.66
2022-07-28T10:05:14.000Z,31.97
2022-07-28T10:08:16.151Z,31.95
2022-07-28T10:11:24.499Z,32.11
2022-07-28T10:14:32.570Z,32.06
2022-07-28T10:17:35.079Z,32.09
2022-07-28T10:20:39.420Z,31.94
2022-07-28T10:24:05.066Z,32.09
2022-07-28T10:27:08.434Z,31.88
2022-07-28T10:30:12.546Z,31.69
2022-07-28T10:33:15.676Z,31.53
2022-07-28T10:36:23.752Z,31.59
2022-07-28T10:39:31.971Z,31.75
2022-07-28T10:42:36.363Z,31.91
2022-07-28T10:46:03.200Z,31.75
2022-07-28T10:49:03.728Z,31.87
2022-07-28T10:52:15.438Z,31.91
2022-07-28T10:55:38.270Z,32.04
2022-07-28T10:59:01.429Z,32.29
2022-07-28T11:02:07.087Z,32.28
2022-07-28T11:05:36.559Z,32.11
2022-07-28T11:08:39.104Z,32.12
2022-07-28T11:11:55.327Z,32.23
2022-07-28T11:14:58.412Z,32.45
2022-07-28T11:18:20.522Z,32.38
2022-07-28T11:21:22.919Z,32.56
2022-07-28T11:24:25.575Z,32.59
2022-07-28T11:27:46.100Z,32.87
2022-07-28T11:30:48.244Z,33.21
2022-07-28T11:33:55.519Z,33.27
2022-07-28T11:37:05.332Z,33.71
2022-07-28T11:40:31.250Z,33.88
2022-07-28T11:43:37.796Z,34.06
2022-07-28T11:46:41.304Z,33.80
2022-07-28T11:49:44.797Z,33.96
2022-07-28T11:52:55.534Z,34.01
2022-07-28T11:56:02.759Z,33.68
2022-07-28T11:59:06.841Z,33.41
2022-07-28T12:02:09.059Z,32.93
2022-07-28T12:05:14.989Z,33.07
2022-07-28T12:08:17.161Z,33.50
2022-07-28T12:11:20.128Z,33.39
2022-07-28T12:14:22.841Z,33.50
2022-07-28T12:17:34.833Z,33.59
2022-07-28T12:20:44.964Z,32.91
2022-07-28T12:23:54.048Z,32.68
2022-07-28T12:26:57.701Z,32.42
2022-07-28T12:30:02.078Z,32.09
2022-07-28T12:33:19.987Z,31.92
2022-07-28T12:36:24.310Z,31.92
2022-07-28T12:39:26.821Z,32.40
2022-07-28T12:42:31.207Z,32.55
2022-07-28T12:45:33.538Z,32.95
2022-07-28T12:48:41.376Z,33.22
2022-07-28T12:51:45.297Z,33.56
2022-07-28T12:54:53.346Z,33.53
2022-07-28T12:57:57.853Z,33.76
2022-07-28T13:01:01.433Z,33.39
2022-07-28T13:04:03.644Z,32.95
2022-07-28T13:07:10.541Z,33.17
2022-07-28T13:10:13.076Z,33.23
2022-07-28T13:13:16.302Z,33.31
2022-07-28T13:16:20.738Z,33.30
2022-07-28T13:19:24.105Z,33.36
2022-07-28T13:22:30.076Z,33.36
2022-07-28T13:25:32.536Z,33.72
2022-07-28T13:28:35.412Z,33.78
2022-07-28T13:31:37.981Z,33.57
2022-07-28T13:34:40.212Z,33.09
2022-07-28T13:37:43.703Z,33.18
2022-07-28T13:40:45.967Z,33.25
2022-07-28T13:43:49.111Z,33.27
2022-07-28T13:46:53.649Z,33.29
2022-07-28T13:49:57.917Z,33.25
2022-07-28T13:53:00.401Z,33.23
2022-07-28T13:56:08.264Z,32.78
2022-07-28T13:59:11.039Z,32.48
2022-07-28T14:02:16.347Z,32.19
2022-07-28T14:05:19.040Z,32.23
2022-07-28T14:08:21.431Z,31.88
2022-07-28T14:11:30.942Z,31.72
2022-07-28T14:14:38.587Z,31.75
2022-07-28T14:17:50.688Z,31.81
2022-07-28T14:20:52.843Z,31.86
2022-07-28T14:23:55.299Z,31.99
2022-07-28T14:26:57.438Z,32.05
2022-07-28T14:30:00.078Z,32.20
2022-07-28T14:33:06.410Z,32.05
2022-07-28T14:36:08.954Z,32.07
2022-07-28T14:39:12.661Z,32.17
2022-07-28T14:42:15.223Z,32.13
2022-07-28T14:45:17.448Z,31.98
2022-07-28T14:48:19.820Z,32.03
2022-07-28T14:51:21.993Z,32.14
2022-07-28T14:54:24.590Z,32.23
2022-07-28T14:57:50.428Z,32.40
2022-07-28T15:00:49.115Z,32.44
2022-07-28T15:03:51.252Z,32.43
2022-07-28T15:06:53.880Z,32.42
2022-07-28T15:09:56.471Z,32.21
2022-07-28T15:12:58.877Z,32.27
2022-07-28T15:16:01.145Z,32.21
2022-07-28T15:19:03.726Z,32.25
2022-07-28T15:22:06.418Z,32.34
2022-07-28T15:25:09.211Z,32.30
2022-07-28T15:28:11.361Z,32.38
2022-07-28T15:31:22.299Z,32.14
2022-07-28T15:34:25.748Z,31.78
2022-07-28T15:37:28.238Z,31.76
2022-07-28T15:40:30.407Z,31.86
2022-07-28T15:43:32.970Z,31.97
2022-07-28T15:46:35.193Z,32.04
2022-07-28T15:49:37.714Z,31.88
2022-07-28T15:52:39.832Z,31.73
2022-07-28T15:55:45.264Z,31.78
2022-07-28T15:58:49.817Z,31.55
2022-07-28T16:01:52.368Z,31.32
2022-07-28T16:04:54.840Z,31.18
2022-07-28T16:07:56.959Z,30.99
2022-07-28T16:10:59.337Z,30.86
2022-07-28T16:14:01.487Z,30.91
2022-07-28T16:17:04.046Z,30.95
2022-07-28T16:20:10.143Z,31.02
2022-07-28T16:23:12.898Z,31.05
2022-07-28T16:26:15.016Z,31.09
2022-07-28T16:29:18.325Z,31.12
2022-07-28T16:32:20.442Z,31.11
2022-07-28T16:35:22.803Z,31.06
2022-07-28T16:38:25.680Z,31.10
2022-07-28T16:41:46.574Z,31.00
2022-07-28T16:44:49.441Z,30.97
2022-07-28T16:47:52.996Z,30.86
2022-07-28T16:50:55.480Z,30.74
2022-07-28T16:53:57.980Z,30.60
2022-07-28T16:57:00.927Z,30.49
2022-07-28T17:00:05.459Z,30.35
2022-07-28T17:03:11.051Z,30.26
2022-07-28T17:06:13.673Z,30.14
2022-07-28T17:09:16.589Z,30.04
2022-07-28T17:12:19.036Z,29.93
2022-07-28T17:15:23.068Z,29.85
2022-07-28T17:18:26.044Z,29.73
2022-07-28T17:21:28.266Z,29.68
2022-07-28T17:24:30.755Z,29.51
2022-07-28T17:27:38.147Z,29.38
2022-07-28T17:30:42.234Z,29.20
2022-07-28T17:33:44.409Z,29.06
2022-07-28T17:36:48.040Z,28.96
2022-07-28T17:39:50.210Z,28.87
2022-07-28T17:42:53.161Z,28.73
2022-07-28T17:45:55.495Z,28.68
2022-07-28T17:48:58.969Z,28.57
2022-07-28T17:52:01.446Z,28.45
2022-07-28T17:55:23.454Z,28.34
2022-07-28T17:58:32.263Z,28.27
2022-07-28T18:01:35.127Z,28.15
2022-07-28T18:04:37.595Z,28.04
2022-07-28T18:07:50.123Z,27.95
2022-07-28T18:10:54.647Z,27.85
2022-07-28T18:14:04.944Z,27.75
2022-07-28T18:17:07.579Z,27.68
2022-07-28T18:20:10.381Z,27.52
2022-07-28T18:23:13.257Z,27.43
2022-07-28T18:26:15.453Z,27.33
2022-07-28T18:29:19.182Z,27.28
2022-07-28T18:32:21.309Z,27.21
2022-07-28T18:35:24.262Z,27.13
2022-07-28T18:38:26.402Z,27.09
2022-07-28T18:41:29.008Z,27.02
2022-07-28T18:44:36.816Z,26.95
2022-07-28T18:47:47.350Z,26.85
2022-07-28T18:50:50.092Z,26.76
2022-07-28T18:53:52.777Z,26.68
2022-07-28T18:56:55.648Z,26.59
2022-07-28T18:59:58.409Z,26.47
2022-07-28T19:03:01.497Z,26.41
2022-07-28T19:06:04.648Z,26.32
2022-07-28T19:09:06.884Z,26.25
2022-07-28T19:12:09.873Z,26.19
2022-07-28T19:15:12.247Z,26.13
2022-07-28T19:18:14.642Z,26.02
2022-07-28T19:21:16.911Z,25.93
2022-07-28T19:24:19.874Z,25.90
2022-07-28T19:27:22.543Z,25.90
2022-07-28T19:30:26.547Z,25.79
2022-07-28T19:33:32.154Z,25.69
2022-07-28T19:36:41.456Z,25.66
2022-07-28T19:39:45.810Z,25.58
2022-07-28T19:42:48.727Z,25.52
2022-07-28T19:45:57.222Z,25.47
2022-07-28T19:48:59.799Z,25.39
2022-07-28T19:52:02.009Z,25.32
2022-07-28T19:55:06.046Z,25.27
2022-07-28T19:58:08.309Z,25.26
2022-07-28T20:01:10.726Z,25.25
2022-07-28T20:04:13.606Z,25.19
2022-07-28T20:07:15.773Z,25.09
2022-07-28T20:10:18.191Z,25.06
2022-07-28T20:13:20.355Z,25.01
2022-07-28T20:16:24.465Z,24.89
2022-07-28T20:19:26.676Z,24.86
2022-07-28T20:22:29.128Z,24.81
2022-07-28T20:25:31.466Z,24.80
2022-07-28T20:28:33.893Z,24.67
2022-07-28T20:31:36.740Z,24.61
2022-07-28T20:34:39.303Z,24.59
2022-07-28T20:37:41.685Z,24.51
2022-07-28T20:40:44.072Z,24.39
2022-07-28T20:43:59.724Z,24.36
2022-07-28T20:47:08.646Z,24.38
2022-07-28T20:50:12.832Z,24.30
2022-07-28T20:53:15.222Z,24.30
2022-07-28T20:56:17.387Z,24.29
2022-07-28T20:59:19.810Z,24.27
2022-07-28T21:02:22.970Z,24.17
2022-07-28T21:05:34.946Z,24.17
2022-07-28T21:08:38.191Z,24.13
2022-07-28T21:11:40.925Z,24.14
2022-07-28T21:14:43.140Z,24.15
2022-07-28T21:17:45.559Z,24.08
2022-07-28T21:20:47.726Z,24.04
2022-07-28T21:23:50.472Z,23.98
2022-07-28T21:26:53.501Z,23.94
2022-07-28T21:32:57.417Z,23.85
2022-07-28T21:35:59.886Z,23.82
2022-07-28T21:39:03.303Z,23.82
2022-07-28T21:42:08.445Z,23.76
2022-07-28T21:45:11.594Z,23.72
2022-07-28T21:48:14.465Z,23.70
2022-07-28T21:51:20.610Z,23.66
2022-07-28T21:54:24.081Z,23.65
2022-07-28T21:57:26.231Z,23.65
2022-07-28T22:00:29.234Z,23.65
2022-07-28T22:03:31.800Z,23.62
2022-07-28T22:06:33.916Z,23.65
2022-07-28T22:09:38.103Z,23.61
2022-07-28T22:12:40.352Z,23.38
2022-07-28T22:15:42.749Z,23.39
2022-07-28T22:18:44.876Z,23.40
2022-07-28T22:21:48.000Z,23.32
2022-07-28T22:24:50.350Z,23.30
2022-07-28T22:27:53.551Z,23.22
2022-07-28T22:30:55.694Z,23.20
2022-07-28T22:33:58.052Z,23.25
2022-07-28T22:37:11.189Z,23.26
2022-07-28T22:40:18.326Z,23.23
2022-07-28T22:43:20.490Z,23.20
2022-07-28T22:46:22.936Z,23.16
2022-07-28T22:49:25.412Z,23.31
2022-07-28T22:52:29.391Z,23.36
2022-07-28T22:58:52.047Z,23.55
2022-07-28T23:01:54.261Z,23.63
2022-07-28T23:04:58.058Z,23.71
2022-07-28T23:08:00.285Z,23.72
2022-07-28T23:11:02.854Z,23.75
2022-07-28T23:14:05.151Z,23.82
2022-07-28T23:17:07.649Z,23.87
2022-07-28T23:20:10.456Z,23.92
2022-07-28T23:23:14.869Z,23.92
2022-07-28T23:26:17.226Z,23.92
2022-07-28T23:29:19.720Z,23.92
2022-07-28T23:32:21.939Z,23.97
2022-07-28T23:35:24.722Z,23.94
2022-07-28T23:38:27.306Z,23.89
2022-07-28T23:41:29.993Z,23.83
2022-07-28T23:44:32.185Z,23.82
2022-07-28T23:47:34.660Z,23.79
2022-07-28T23:50:36.880Z,23.78
2022-07-28T23:53:41.240Z,23.76
2022-07-28T23:56:43.752Z,23.81
2022-07-28T23:59:46.276Z,23.71
